Time;durP1;ratioP1;P1;durP2;ratioP2;P2;SDS_P1;SDS_P2;PMS_P1;PMS_P2;Temp;Humidity;BMP_temperature;BMP_pressure;BME280_temperature;BME280_humidity;BME280_pressure;Samples;Min_cycle;Max_cycle;Signal;HPM_P1;HPM_P2
2022/01/16 00:00:40;;;;;;;20.13;12.53;;;;;;;;;;5052922;28;20174;-73
2022/01/16 00:05:50;;;;;;;13.07;8.73;;;;;;;;;;5053576;28;20185;-73
2022/01/16 00:08:15;;;;;;;12.50;8.23;;;;;;;;;;5052150;28;20178;-73
2022/01/16 00:10:40;;;;;;;7.97;5.05;;;;;;;;;;5036438;28;20185;-73
2022/01/16 00:13:05;;;;;;;8.47;5.30;;;;;;;;;;5034252;28;20186;-73
2022/01/16 00:15:30;;;;;;;11.93;7.43;;;;;;;;;;5056461;28;20167;-73
2022/01/16 00:18:49;;;;;;;8.10;5.87;;;;;;;;;;5052887;28;20232;-73
2022/01/16 00:20:41;;;;;;;10.53;6.67;;;;;;;;;;5035948;28;20269;-74
2022/01/16 00:23:09;;;;;;;9.90;7.63;;;;;;;;;;5033606;28;20309;-73
2022/01/16 00:25:34;;;;;;;8.40;6.07;;;;;;;;;;5039521;28;20174;-74
2022/01/16 00:28:00;;;;;;;9.73;6.63;;;;;;;;;;5034530;28;20201;-73
2022/01/16 00:30:25;;;;;;;10.13;6.53;;;;;;;;;;5050569;28;20188;-74
2022/01/16 00:32:50;;;;;;;7.40;4.87;;;;;;;;;;5037621;28;20186;-74
2022/01/16 00:35:16;;;;;;;5.83;5.13;;;;;;;;;;5037162;28;20261;-74
2022/01/16 00:37:41;;;;;;;8.67;5.60;;;;;;;;;;5037263;28;20170;-74
2022/01/16 00:40:07;;;;;;;7.13;5.37;;;;;;;;;;5038736;28;20238;-74
2022/01/16 00:42:33;;;;;;;5.80;4.97;;;;;;;;;;5051820;28;20178;-74
2022/01/16 00:45:00;;;;;;;6.77;4.47;;;;;;;;;;5052151;28;20193;-74
2022/01/16 00:47:25;;;;;;;5.37;4.70;;;;;;;;;;5037008;28;20196;-74
2022/01/16 00:49:50;;;;;;;7.57;4.60;;;;;;;;;;5037194;28;20201;-74
2022/01/16 00:52:15;;;;;;;7.40;4.87;;;;;;;;;;5053647;28;20235;-74
2022/01/16 00:54:41;;;;;;;10.03;5.30;;;;;;;;;;5054432;28;20182;-74
2022/01/16 00:57:06;;;;;;;7.33;5.10;;;;;;;;;;5033118;28;20174;-74
2022/01/16 00:59:31;;;;;;;7.33;4.60;;;;;;;;;;5041270;28;20272;-74
2022/01/16 01:01:56;;;;;;;9.63;5.30;;;;;;;;;;5036080;28;20174;-74
2022/01/16 01:04:22;;;;;;;8.47;4.93;;;;;;;;;;5055800;28;20188;-74
2022/01/16 01:06:49;;;;;;;8.57;5.10;;;;;;;;;;5038122;28;20201;-74
2022/01/16 01:09:15;;;;;;;6.40;5.53;;;;;;;;;;5030695;28;20269;-74
2022/01/16 01:11:42;;;;;;;6.83;4.77;;;;;;;;;;5042157;28;20256;-74
2022/01/16 01:14:16;;;;;;;5.50;4.73;;;;;;;;;;5024581;28;20222;-74
2022/01/16 01:16:53;;;;;;;7.67;5.70;;;;;;;;;;5013691;28;20179;-74
2022/01/16 01:19:20;;;;;;;8.90;6.00;;;;;;;;;;5012691;28;20175;-74
2022/01/16 01:21:46;;;;;;;8.53;4.83;;;;;;;;;;5031130;28;20181;-74
2022/01/16 01:24:11;;;;;;;9.93;6.20;;;;;;;;;;5034329;28;20186;-74
2022/01/16 01:26:45;;;;;;;7.27;4.90;;;;;;;;;;5014822;28;20443;-74
2022/01/16 01:29:15;;;;;;;8.50;5.30;;;;;;;;;;5029653;28;20226;-74
2022/01/16 01:31:41;;;;;;;8.17;5.70;;;;;;;;;;5030486;28;20196;-74
2022/01/16 01:34:07;;;;;;;9.40;6.60;;;;;;;;;;5018053;28;20285;-74
2022/01/16 01:36:32;;;;;;;9.53;6.77;;;;;;;;;;5010078;28;20183;-74
2022/01/16 01:38:57;;;;;;;13.27;9.40;;;;;;;;;;5013788;28;20178;-74
2022/01/16 01:41:25;;;;;;;9.17;7.50;;;;;;;;;;5015938;28;20202;-74
2022/01/16 01:52:02;;;;;;;10.53;7.27;;;;;;;;;;5029130;28;20194;-73
2022/01/16 01:54:28;;;;;;;8.43;6.70;;;;;;;;;;5011342;28;20179;-73
2022/01/16 01:56:55;;;;;;;15.03;8.50;;;;;;;;;;5014374;28;20179;-73
2022/01/16 01:59:20;;;;;;;9.77;6.27;;;;;;;;;;5032051;28;20332;-73
2022/01/16 02:01:45;;;;;;;8.63;6.73;;;;;;;;;;5027789;28;20246;-73
2022/01/16 02:04:10;;;;;;;8.10;5.93;;;;;;;;;;5013326;28;20185;-73
2022/01/16 02:06:35;;;;;;;9.87;7.30;;;;;;;;;;5030941;28;20241;-73
2022/01/16 02:09:03;;;;;;;7.57;6.43;;;;;;;;;;5013203;28;20202;-73
2022/01/16 02:11:29;;;;;;;7.97;6.47;;;;;;;;;;5008580;28;20207;-73
2022/01/16 02:14:12;;;;;;;8.00;5.57;;;;;;;;;;5013455;28;20297;-73
2022/01/16 02:33:04;;;;;;;8.37;5.63;;;;;;;;;;5037476;28;20274;-73
2022/01/16 02:35:29;;;;;;;9.80;6.17;;;;;;;;;;5032150;28;20185;-73
2022/01/16 02:37:55;;;;;;;9.07;6.17;;;;;;;;;;5012790;28;20186;-73
2022/01/16 02:40:24;;;;;;;11.67;6.77;;;;;;;;;;5017302;28;20179;-73
2022/01/16 02:42:51;;;;;;;8.20;5.93;;;;;;;;;;5029684;28;20280;-73
2022/01/16 02:45:28;;;;;;;8.00;5.93;;;;;;;;;;5018814;28;20253;-73
2022/01/16 02:47:54;;;;;;;8.37;6.37;;;;;;;;;;5013156;28;20181;-73
2022/01/16 02:50:19;;;;;;;7.87;5.53;;;;;;;;;;5019230;28;20206;-73
2022/01/16 02:52:45;;;;;;;12.50;6.70;;;;;;;;;;5016779;28;20174;-74
2022/01/16 02:55:13;;;;;;;9.63;6.07;;;;;;;;;;5013573;28;23385;-74
2022/01/16 02:57:38;;;;;;;7.93;6.10;;;;;;;;;;5025505;28;20240;-73
2022/01/16 03:00:04;;;;;;;9.77;6.10;;;;;;;;;;5033839;28;20406;-73
2022/01/16 03:02:29;;;;;;;6.33;5.03;;;;;;;;;;5014308;28;20191;-73
2022/01/16 03:04:54;;;;;;;7.43;5.93;;;;;;;;;;5033139;28;20206;-73
2022/01/16 03:07:22;;;;;;;7.63;5.90;;;;;;;;;;5019500;28;20196;-73
2022/01/16 03:10:16;;;;;;;8.83;6.27;;;;;;;;;;5012160;28;20229;-73
2022/01/16 03:12:41;;;;;;;10.00;6.37;;;;;;;;;;5017557;28;20185;-73
2022/01/16 03:15:07;;;;;;;8.80;6.33;;;;;;;;;;5053561;28;20230;-73
2022/01/16 03:17:50;;;;;;;8.83;6.70;;;;;;;;;;5038016;28;20180;-73
2022/01/16 03:23:01;;;;;;;18.77;15.17;;;;;;;;;;5023382;28;20204;-73
2022/01/16 03:25:26;;;;;;;7.77;5.57;;;;;;;;;;5029598;28;20276;-73
2022/01/16 03:27:51;;;;;;;8.07;5.80;;;;;;;;;;5039319;28;20210;-73
2022/01/16 03:30:16;;;;;;;7.70;5.47;;;;;;;;;;5040200;28;20294;-73
2022/01/16 03:32:43;;;;;;;8.57;5.87;;;;;;;;;;5041709;28;20190;-73
2022/01/16 03:35:08;;;;;;;9.80;6.83;;;;;;;;;;5038150;28;20182;-73
2022/01/16 03:37:33;;;;;;;10.47;7.27;;;;;;;;;;5035432;28;20224;-73
2022/01/16 03:39:58;;;;;;;9.30;6.43;;;;;;;;;;5055898;28;20166;-73
2022/01/16 03:42:28;;;;;;;10.93;6.80;;;;;;;;;;5036671;28;20182;-73
2022/01/16 03:44:53;;;;;;;7.77;6.47;;;;;;;;;;5051883;28;20179;-73
2022/01/16 03:47:18;;;;;;;8.63;6.50;;;;;;;;;;5034194;28;20183;-73
2022/01/16 03:49:43;;;;;;;9.67;6.50;;;;;;;;;;5032897;28;20293;-73
2022/01/16 03:52:09;;;;;;;11.47;6.77;;;;;;;;;;5035964;28;20166;-73
2022/01/16 03:54:34;;;;;;;11.33;6.87;;;;;;;;;;5034659;28;20175;-75
2022/01/16 03:57:00;;;;;;;10.30;6.87;;;;;;;;;;5032642;28;20268;-75
2022/01/16 03:59:25;;;;;;;11.00;6.50;;;;;;;;;;5051894;28;20178;-74
2022/01/16 04:01:51;;;;;;;10.03;6.37;;;;;;;;;;5035040;28;20187;-75
2022/01/16 04:04:16;;;;;;;11.40;7.43;;;;;;;;;;5038052;28;20188;-75
2022/01/16 04:06:41;;;;;;;12.23;7.90;;;;;;;;;;5035158;28;20193;-75
2022/01/16 04:09:06;;;;;;;9.60;7.23;;;;;;;;;;5035557;28;20196;-74
2022/01/16 04:11:31;;;;;;;8.77;6.50;;;;;;;;;;5041548;28;20265;-75
2022/01/16 04:14:09;;;;;;;9.60;6.80;;;;;;;;;;5030048;28;20232;-75
2022/01/16 04:16:35;;;;;;;10.37;7.33;;;;;;;;;;5017361;28;20205;-75
2022/01/16 04:19:00;;;;;;;12.80;8.53;;;;;;;;;;5031791;28;20212;-75
2022/01/16 04:21:27;;;;;;;9.80;7.10;;;;;;;;;;5011781;28;20181;-75
2022/01/16 04:23:53;;;;;;;12.50;7.87;;;;;;;;;;5008653;28;20206;-75
2022/01/16 04:26:18;;;;;;;11.27;7.77;;;;;;;;;;5009863;28;20181;-73
2022/01/16 04:28:46;;;;;;;11.30;7.30;;;;;;;;;;5026445;28;20191;-73
2022/01/16 04:31:11;;;;;;;11.83;7.83;;;;;;;;;;5032084;28;20235;-75
2022/01/16 04:33:36;;;;;;;10.07;6.60;;;;;;;;;;5006468;28;20290;-73
2022/01/16 04:36:02;;;;;;;10.50;6.93;;;;;;;;;;5005990;28;20239;-73
2022/01/16 04:38:28;;;;;;;14.03;8.73;;;;;;;;;;5014757;28;20184;-73
2022/01/16 04:43:51;;;;;;;13.63;9.60;;;;;;;;;;5027767;28;20194;-73
2022/01/16 04:46:23;;;;;;;17.20;9.70;;;;;;;;;;5010675;28;20185;-73
2022/01/16 04:48:50;;;;;;;13.60;8.63;;;;;;;;;;5027010;28;20608;-73
2022/01/16 04:51:15;;;;;;;12.87;8.37;;;;;;;;;;5011241;28;20182;-73
2022/01/16 04:53:41;;;;;;;13.07;8.17;;;;;;;;;;5008200;28;20169;-74
2022/01/16 04:56:06;;;;;;;12.60;8.77;;;;;;;;;;5006091;28;20205;-75
2022/01/16 04:58:32;;;;;;;11.50;8.07;;;;;;;;;;5026561;28;20275;-73
2022/01/16 05:00:57;;;;;;;11.60;7.90;;;;;;;;;;5021143;28;20176;-73
2022/01/16 05:03:23;;;;;;;12.87;7.60;;;;;;;;;;5011058;28;20188;-73
2022/01/16 05:05:48;;;;;;;13.20;8.67;;;;;;;;;;5011205;28;20219;-75
2022/01/16 05:08:13;;;;;;;12.93;8.60;;;;;;;;;;5005213;28;20180;-75
2022/01/16 05:10:38;;;;;;;12.43;8.90;;;;;;;;;;5028478;28;20177;-73
2022/01/16 05:18:45;;;;;;;14.23;7.77;;;;;;;;;;5051049;28;20232;-73
2022/01/16 05:21:11;;;;;;;11.07;7.37;;;;;;;;;;5033387;28;20176;-73
2022/01/16 05:23:36;;;;;;;11.80;8.87;;;;;;;;;;5034147;28;20177;-73
2022/01/16 05:26:03;;;;;;;14.07;8.57;;;;;;;;;;5054872;28;20208;-73
2022/01/16 05:28:29;;;;;;;12.67;7.80;;;;;;;;;;5033138;28;20171;-73
2022/01/16 05:30:54;;;;;;;11.90;8.70;;;;;;;;;;5030343;28;20181;-73
2022/01/16 05:33:19;;;;;;;10.77;7.17;;;;;;;;;;5033352;28;20198;-73
2022/01/16 05:35:44;;;;;;;10.67;6.63;;;;;;;;;;5052665;28;20264;-75
2022/01/16 05:38:10;;;;;;;10.00;7.53;;;;;;;;;;5035219;28;20184;-75
2022/01/16 05:40:36;;;;;;;11.67;7.33;;;;;;;;;;5033775;28;20184;-75
2022/01/16 05:43:01;;;;;;;10.33;7.03;;;;;;;;;;5051615;28;20238;-75
2022/01/16 05:45:26;;;;;;;11.63;7.73;;;;;;;;;;5051391;28;20180;-75
2022/01/16 05:47:51;;;;;;;11.33;7.20;;;;;;;;;;5033279;28;20476;-75
2022/01/16 05:50:17;;;;;;;9.57;7.20;;;;;;;;;;5032752;28;20212;-73
2022/01/16 05:52:42;;;;;;;9.93;7.30;;;;;;;;;;5033583;28;20261;-73
2022/01/16 05:55:07;;;;;;;10.03;7.00;;;;;;;;;;5050744;28;20178;-74
2022/01/16 05:57:33;;;;;;;10.77;6.40;;;;;;;;;;5036037;28;20162;-73
2022/01/16 05:59:58;;;;;;;13.60;8.13;;;;;;;;;;5032508;28;20182;-73
2022/01/16 06:02:24;;;;;;;10.07;6.90;;;;;;;;;;5049851;28;20231;-73
2022/01/16 06:04:49;;;;;;;12.17;7.27;;;;;;;;;;5033558;28;20230;-75
2022/01/16 06:07:14;;;;;;;9.07;6.70;;;;;;;;;;5033279;28;20326;-75
2022/01/16 06:09:39;;;;;;;10.27;6.70;;;;;;;;;;5034228;28;20214;-75
2022/01/16 06:12:05;;;;;;;9.57;6.63;;;;;;;;;;5041881;28;20262;-75
2022/01/16 06:14:30;;;;;;;11.20;7.03;;;;;;;;;;5039511;28;20225;-75
2022/01/16 06:16:55;;;;;;;11.40;7.87;;;;;;;;;;5036056;28;20178;-75
2022/01/16 06:19:21;;;;;;;13.67;7.70;;;;;;;;;;5051598;28;20212;-75
2022/01/16 06:21:46;;;;;;;10.80;8.23;;;;;;;;;;5041172;28;20176;-73
2022/01/16 06:24:11;;;;;;;16.57;9.00;;;;;;;;;;5032744;28;20174;-75
2022/01/16 06:26:37;;;;;;;10.47;7.60;;;;;;;;;;5033537;28;20391;-75
2022/01/16 06:29:02;;;;;;;13.43;9.83;;;;;;;;;;5035385;28;20264;-75
2022/01/16 06:31:27;;;;;;;15.10;10.73;;;;;;;;;;5050084;28;20177;-75
2022/01/16 06:33:52;;;;;;;16.93;10.37;;;;;;;;;;5034513;28;20193;-75
2022/01/16 06:36:18;;;;;;;16.80;10.80;;;;;;;;;;5034414;28;20175;-75
2022/01/16 06:38:43;;;;;;;15.97;9.93;;;;;;;;;;5034738;28;20178;-75
2022/01/16 06:41:09;;;;;;;18.67;11.67;;;;;;;;;;5058228;28;20180;-74
2022/01/16 06:43:34;;;;;;;16.77;10.57;;;;;;;;;;5035919;28;20266;-75
2022/01/16 06:45:59;;;;;;;17.37;11.73;;;;;;;;;;5034107;28;20178;-73
2022/01/16 06:48:24;;;;;;;20.53;12.60;;;;;;;;;;5034548;28;20192;-75
2022/01/16 06:50:54;;;;;;;19.93;12.50;;;;;;;;;;5040709;28;20278;-75
2022/01/16 06:53:19;;;;;;;24.80;14.27;;;;;;;;;;5038397;28;20284;-75
2022/01/16 06:55:44;;;;;;;21.07;12.77;;;;;;;;;;5032677;28;20193;-75
2022/01/16 06:58:09;;;;;;;21.27;12.90;;;;;;;;;;5050447;28;20179;-75
2022/01/16 07:00:35;;;;;;;22.93;14.50;;;;;;;;;;5032525;28;20210;-75
2022/01/16 07:03:00;;;;;;;23.37;15.77;;;;;;;;;;5036546;28;20180;-75
2022/01/16 07:05:25;;;;;;;23.27;15.17;;;;;;;;;;5037077;28;20284;-75
2022/01/16 07:07:51;;;;;;;26.93;15.40;;;;;;;;;;5032341;28;20188;-75
2022/01/16 07:10:16;;;;;;;28.03;16.40;;;;;;;;;;5034857;28;20221;-75
2022/01/16 07:12:42;;;;;;;25.37;16.60;;;;;;;;;;5053016;28;20279;-75
2022/01/16 07:15:07;;;;;;;23.23;14.33;;;;;;;;;;5032087;28;20231;-75
2022/01/16 07:17:32;;;;;;;24.37;15.23;;;;;;;;;;5049496;28;20179;-75
2022/01/16 07:19:57;;;;;;;28.77;16.53;;;;;;;;;;5034464;28;20236;-75
2022/01/16 07:22:23;;;;;;;24.13;15.03;;;;;;;;;;5047263;28;20207;-75
2022/01/16 07:24:49;;;;;;;28.57;16.23;;;;;;;;;;5051676;28;20516;-75
2022/01/16 07:27:15;;;;;;;23.67;14.00;;;;;;;;;;5034044;28;20188;-75
2022/01/16 07:29:40;;;;;;;19.57;11.83;;;;;;;;;;5051020;28;20233;-75
2022/01/16 07:32:07;;;;;;;24.53;14.97;;;;;;;;;;5036173;28;20183;-75
2022/01/16 07:34:32;;;;;;;26.87;15.93;;;;;;;;;;5033220;28;20203;-75
2022/01/16 07:36:57;;;;;;;20.70;13.73;;;;;;;;;;5031075;28;20184;-76
2022/01/16 07:39:22;;;;;;;24.77;14.17;;;;;;;;;;5033113;28;20251;-75
2022/01/16 07:41:47;;;;;;;27.07;14.47;;;;;;;;;;5031197;28;20279;-75
2022/01/16 07:44:13;;;;;;;24.30;16.13;;;;;;;;;;5034967;28;20191;-75
2022/01/16 07:46:38;;;;;;;28.53;16.17;;;;;;;;;;5037348;28;20179;-75
2022/01/16 07:49:03;;;;;;;30.97;20.77;;;;;;;;;;5033849;28;20194;-75
2022/01/16 07:51:29;;;;;;;38.97;22.07;;;;;;;;;;5038575;28;20180;-75
2022/01/16 07:53:55;;;;;;;30.37;19.53;;;;;;;;;;5038665;28;20255;-75
2022/01/16 07:56:20;;;;;;;35.47;19.03;;;;;;;;;;5037113;28;20278;-75
2022/01/16 07:58:46;;;;;;;28.07;16.40;;;;;;;;;;5036329;28;20188;-75
2022/01/16 08:01:11;;;;;;;30.70;20.73;;;;;;;;;;5029928;28;20180;-75
2022/01/16 08:03:36;;;;;;;21.60;12.93;;;;;;;;;;5037607;28;20309;-75
2022/01/16 08:06:02;;;;;;;30.80;19.33;;;;;;;;;;5054669;28;20246;-75
2022/01/16 08:08:27;;;;;;;30.90;17.47;;;;;;;;;;5036147;28;20180;-75
2022/01/16 08:10:52;;;;;;;35.73;23.27;;;;;;;;;;5035893;28;20174;-75
2022/01/16 08:13:17;;;;;;;37.00;22.37;;;;;;;;;;5034292;28;20219;-75
2022/01/16 08:15:43;;;;;;;30.33;17.93;;;;;;;;;;5034372;28;20237;-76
2022/01/16 08:18:09;;;;;;;32.80;17.80;;;;;;;;;;5040452;28;20167;-76
2022/01/16 08:20:34;;;;;;;37.33;22.47;;;;;;;;;;5040802;28;20195;-75
2022/01/16 08:22:59;;;;;;;31.50;17.30;;;;;;;;;;5038226;28;20178;-75
2022/01/16 08:25:25;;;;;;;32.07;16.63;;;;;;;;;;5036987;28;20230;-75
2022/01/16 08:27:50;;;;;;;37.10;21.47;;;;;;;;;;5029535;28;20246;-76
2022/01/16 08:30:16;;;;;;;35.67;21.20;;;;;;;;;;5056535;28;20208;-76
2022/01/16 08:32:43;;;;;;;37.70;21.47;;;;;;;;;;5035585;28;20246;-75
2022/01/16 08:35:09;;;;;;;33.67;20.60;;;;;;;;;;5044385;28;20179;-76
2022/01/16 08:37:34;;;;;;;34.90;20.43;;;;;;;;;;5040317;28;20176;-76
2022/01/16 08:40:00;;;;;;;33.73;19.30;;;;;;;;;;5036950;28;20333;-75
2022/01/16 08:42:25;;;;;;;36.17;21.80;;;;;;;;;;5037757;28;20180;-75
2022/01/16 08:44:50;;;;;;;34.87;21.00;;;;;;;;;;5056510;28;20175;-75
2022/01/16 08:47:15;;;;;;;32.23;20.83;;;;;;;;;;5058317;28;20277;-76
2022/01/16 08:49:40;;;;;;;36.47;18.33;;;;;;;;;;5035884;28;20194;-75
2022/01/16 08:52:06;;;;;;;38.20;16.53;;;;;;;;;;5038449;28;20279;-76
2022/01/16 08:54:31;;;;;;;29.53;15.30;;;;;;;;;;5039467;28;20175;-75
2022/01/16 08:56:56;;;;;;;40.03;20.80;;;;;;;;;;5037132;28;20185;-75
2022/01/16 08:59:22;;;;;;;33.37;20.00;;;;;;;;;;5040010;28;20179;-76
2022/01/16 09:01:47;;;;;;;32.67;17.47;;;;;;;;;;5039203;28;20222;-75
2022/01/16 09:04:12;;;;;;;32.60;19.90;;;;;;;;;;5035704;28;20171;-76
2022/01/16 09:06:37;;;;;;;31.60;17.20;;;;;;;;;;5036792;28;20251;-75
2022/01/16 09:09:03;;;;;;;31.80;17.80;;;;;;;;;;5036709;28;20334;-75
2022/01/16 09:11:28;;;;;;;31.30;17.67;;;;;;;;;;5051643;28;20174;-75
2022/01/16 09:13:53;;;;;;;26.90;16.10;;;;;;;;;;5033944;28;20318;-76
2022/01/16 09:16:19;;;;;;;38.37;19.63;;;;;;;;;;5039217;28;20436;-75
2022/01/16 09:18:44;;;;;;;23.93;14.07;;;;;;;;;;5031172;28;20181;-75
2022/01/16 09:21:10;;;;;;;25.70;13.33;;;;;;;;;;5054758;28;20224;-75
2022/01/16 09:23:37;;;;;;;27.27;17.20;;;;;;;;;;5034685;28;20206;-75
2022/01/16 09:26:02;;;;;;;34.93;19.40;;;;;;;;;;5051934;28;20183;-75
2022/01/16 09:28:27;;;;;;;35.83;18.80;;;;;;;;;;5035261;28;20236;-76
2022/01/16 09:30:53;;;;;;;27.80;15.67;;;;;;;;;;5036564;28;20189;-75
2022/01/16 09:33:18;;;;;;;32.83;17.07;;;;;;;;;;5034225;28;20229;-75
2022/01/16 09:35:43;;;;;;;33.20;18.63;;;;;;;;;;5035634;28;20265;-76
2022/01/16 09:38:08;;;;;;;30.97;17.00;;;;;;;;;;5056838;28;20275;-75
2022/01/16 09:40:34;;;;;;;33.23;18.67;;;;;;;;;;5052632;28;20234;-76
2022/01/16 09:43:01;;;;;;;28.53;16.37;;;;;;;;;;5052326;28;20251;-75
2022/01/16 09:45:26;;;;;;;31.77;19.07;;;;;;;;;;5034251;28;20183;-75
2022/01/16 09:47:51;;;;;;;30.00;19.00;;;;;;;;;;5056740;28;20470;-75
2022/01/16 09:50:18;;;;;;;28.90;15.33;;;;;;;;;;5035575;28;20211;-75
2022/01/16 09:52:44;;;;;;;25.57;15.77;;;;;;;;;;5046945;28;20178;-75
2022/01/16 09:55:09;;;;;;;26.10;15.67;;;;;;;;;;5033192;28;20185;-75
2022/01/16 09:57:35;;;;;;;33.83;18.30;;;;;;;;;;5032506;28;20190;-75
2022/01/16 10:00:01;;;;;;;30.13;16.90;;;;;;;;;;5036936;28;20184;-76
2022/01/16 10:02:26;;;;;;;34.40;20.80;;;;;;;;;;5052086;28;20191;-75
2022/01/16 10:04:53;;;;;;;33.47;20.00;;;;;;;;;;5038522;28;20181;-75
2022/01/16 10:07:19;;;;;;;33.13;20.03;;;;;;;;;;5052520;28;20241;-75
2022/01/16 10:09:46;;;;;;;34.70;20.40;;;;;;;;;;5033891;28;20210;-75
2022/01/16 10:12:16;;;;;;;39.80;23.00;;;;;;;;;;5053238;28;20176;-75
2022/01/16 10:14:47;;;;;;;32.83;19.33;;;;;;;;;;5022086;28;20285;-75
2022/01/16 10:17:17;;;;;;;28.70;19.43;;;;;;;;;;5013760;28;20175;-75
2022/01/16 10:19:43;;;;;;;31.77;18.40;;;;;;;;;;5015102;28;20218;-75
2022/01/16 10:22:09;;;;;;;29.37;17.93;;;;;;;;;;5012869;28;20187;-75
2022/01/16 10:24:35;;;;;;;22.70;15.90;;;;;;;;;;5011677;28;20182;-75
2022/01/16 10:27:07;;;;;;;21.87;13.50;;;;;;;;;;5017555;28;20181;-75
2022/01/16 10:29:34;;;;;;;24.63;15.67;;;;;;;;;;5028606;28;20208;-75
2022/01/16 10:32:12;;;;;;;23.27;16.10;;;;;;;;;;5006093;28;20255;-75
2022/01/16 10:34:38;;;;;;;26.50;15.10;;;;;;;;;;5031916;28;20196;-75
2022/01/16 10:37:21;;;;;;;26.00;15.67;;;;;;;;;;5013965;28;20194;-75
2022/01/16 10:40:07;;;;;;;23.43;14.27;;;;;;;;;;5056413;28;20191;-75
2022/01/16 10:42:33;;;;;;;24.43;15.47;;;;;;;;;;5018140;28;20275;-75
2022/01/16 10:45:02;;;;;;;25.03;17.23;;;;;;;;;;5021492;28;20318;-75
2022/01/16 10:47:51;;;;;;;27.33;16.50;;;;;;;;;;5009678;28;20178;-75
2022/01/16 10:50:16;;;;;;;33.73;20.90;;;;;;;;;;5034055;28;20201;-75
2022/01/16 10:52:46;;;;;;;30.17;18.40;;;;;;;;;;5016878;28;20232;-75
2022/01/16 10:55:11;;;;;;;25.33;17.03;;;;;;;;;;5012839;28;20206;-75
2022/01/16 10:57:36;;;;;;;26.20;15.87;;;;;;;;;;5015062;28;20545;-75
2022/01/16 11:00:06;;;;;;;22.67;16.33;;;;;;;;;;5020620;28;20166;-75
2022/01/16 11:02:32;;;;;;;21.47;13.93;;;;;;;;;;5014900;28;20178;-75
2022/01/16 11:05:08;;;;;;;25.92;16.02;;;;;;;;;;5018845;28;20183;-75
2022/01/16 11:07:33;;;;;;;30.13;16.70;;;;;;;;;;5022719;28;20169;-75
2022/01/16 11:10:00;;;;;;;26.73;16.83;;;;;;;;;;5011071;28;20214;-75
2022/01/16 11:12:25;;;;;;;21.10;13.90;;;;;;;;;;5006481;28;20173;-75
2022/01/16 11:14:50;;;;;;;23.13;14.20;;;;;;;;;;5033144;28;20223;-75
2022/01/16 11:17:16;;;;;;;24.53;14.47;;;;;;;;;;5032510;28;20183;-75
2022/01/16 11:19:41;;;;;;;27.27;15.47;;;;;;;;;;5035586;28;20190;-75
2022/01/16 11:22:10;;;;;;;25.20;15.60;;;;;;;;;;5052770;28;20183;-75
2022/01/16 11:24:47;;;;;;;19.07;12.20;;;;;;;;;;5036809;28;20177;-75
2022/01/16 11:27:15;;;;;;;28.80;17.53;;;;;;;;;;5033334;28;20419;-75
2022/01/16 11:29:40;;;;;;;23.77;13.03;;;;;;;;;;5052177;28;20228;-75
2022/01/16 11:32:07;;;;;;;30.17;17.47;;;;;;;;;;5045933;28;20218;-75
2022/01/16 11:34:32;;;;;;;31.43;19.23;;;;;;;;;;5044691;28;20196;-75
2022/01/16 11:36:58;;;;;;;25.60;13.43;;;;;;;;;;5036534;28;20217;-75
2022/01/16 11:39:32;;;;;;;27.60;16.30;;;;;;;;;;5036165;28;20205;-75
2022/01/16 11:41:59;;;;;;;26.80;15.27;;;;;;;;;;5039524;28;20728;-75
2022/01/16 11:44:27;;;;;;;32.57;18.90;;;;;;;;;;5038840;28;20177;-75
2022/01/16 11:46:55;;;;;;;26.27;14.67;;;;;;;;;;5036717;28;20281;-75
2022/01/16 11:49:30;;;;;;;32.17;20.43;;;;;;;;;;5036172;28;20195;-75
2022/01/16 11:52:02;;;;;;;28.20;18.27;;;;;;;;;;5038841;28;20191;-75
2022/01/16 11:54:27;;;;;;;33.57;19.83;;;;;;;;;;5035186;28;20191;-75
2022/01/16 11:57:00;;;;;;;26.53;13.97;;;;;;;;;;5035375;28;20188;-75
2022/01/16 11:59:34;;;;;;;29.23;15.23;;;;;;;;;;5036800;28;20439;-75
2022/01/16 12:02:01;;;;;;;30.33;15.23;;;;;;;;;;5037370;28;20197;-75
2022/01/16 12:04:32;;;;;;;25.87;13.47;;;;;;;;;;5039457;28;20226;-75
2022/01/16 12:06:58;;;;;;;31.17;14.93;;;;;;;;;;5030261;28;20191;-75
2022/01/16 12:09:41;;;;;;;25.83;15.50;;;;;;;;;;5035900;28;20201;-74
2022/01/16 12:12:12;;;;;;;23.40;14.53;;;;;;;;;;5041648;28;20224;-75
2022/01/16 12:14:51;;;;;;;24.77;14.07;;;;;;;;;;5030958;28;20512;-75
2022/01/16 12:17:29;;;;;;;22.33;12.93;;;;;;;;;;5053904;28;20165;-75
2022/01/16 12:19:55;;;;;;;30.17;16.60;;;;;;;;;;5044172;28;20207;-75
2022/01/16 12:22:42;;;;;;;27.67;17.60;;;;;;;;;;5037206;28;20229;-75
2022/01/16 12:25:37;;;;;;;25.63;15.93;;;;;;;;;;5041742;28;20186;-75
2022/01/16 12:28:06;;;;;;;29.03;15.70;;;;;;;;;;5040408;28;20190;-74
2022/01/16 12:30:38;;;;;;;29.20;18.87;;;;;;;;;;5048054;28;20203;-75
2022/01/16 12:33:15;;;;;;;52.27;26.43;;;;;;;;;;5034719;28;20205;-75
2022/01/16 12:35:40;;;;;;;29.13;18.03;;;;;;;;;;5049843;28;20184;-75
2022/01/16 12:38:10;;;;;;;43.70;19.75;;;;;;;;;;5053930;28;20177;-75
2022/01/16 12:40:38;;;;;;;21.83;14.10;;;;;;;;;;5036730;28;20198;-75
2022/01/16 12:43:05;;;;;;;29.27;15.63;;;;;;;;;;5031972;28;20244;-75
2022/01/16 12:45:39;;;;;;;22.43;12.87;;;;;;;;;;5052700;28;20195;-75
2022/01/16 12:48:05;;;;;;;26.23;14.30;;;;;;;;;;5038818;28;20187;-75
2022/01/16 12:50:30;;;;;;;18.30;13.47;;;;;;;;;;5034559;28;20208;-75
2022/01/16 12:52:56;;;;;;;22.93;12.90;;;;;;;;;;5052978;28;20364;-75
2022/01/16 12:55:30;;;;;;;16.30;11.83;;;;;;;;;;5036333;28;20186;-75
2022/01/16 12:58:15;;;;;;;23.00;14.07;;;;;;;;;;5036511;28;20179;-75
2022/01/16 13:00:59;;;;;;;21.03;13.43;;;;;;;;;;5033165;28;20233;-75
2022/01/16 13:03:28;;;;;;;16.27;10.37;;;;;;;;;;5051830;28;20378;-75
2022/01/16 13:06:13;;;;;;;16.43;10.40;;;;;;;;;;5029723;28;20181;-75
2022/01/16 13:08:53;;;;;;;17.07;10.77;;;;;;;;;;5039997;28;20192;-74
2022/01/16 13:11:18;;;;;;;8.63;5.50;;;;;;;;;;5053691;28;20266;-75
2022/01/16 13:13:43;;;;;;;15.97;10.60;;;;;;;;;;5032870;28;20260;-75
2022/01/16 13:16:18;;;;;;;17.43;10.97;;;;;;;;;;5035821;28;20192;-75
2022/01/16 13:19:02;;;;;;;18.90;12.03;;;;;;;;;;5053486;28;20205;-74
2022/01/16 13:22:04;;;;;;;21.80;12.67;;;;;;;;;;5052346;28;20180;-75
2022/01/16 13:24:31;;;;;;;17.40;10.50;;;;;;;;;;5029501;28;20190;-75
2022/01/16 13:26:57;;;;;;;22.03;12.70;;;;;;;;;;5054395;28;20174;-75
2022/01/16 13:29:22;;;;;;;18.03;11.47;;;;;;;;;;5028032;28;20210;-75
2022/01/16 13:31:48;;;;;;;21.57;12.57;;;;;;;;;;5039852;28;20175;-75
2022/01/16 13:34:18;;;;;;;18.50;12.37;;;;;;;;;;5052004;28;20226;-75
2022/01/16 13:36:51;;;;;;;23.83;16.70;;;;;;;;;;5032822;28;20179;-75
2022/01/16 13:39:32;;;;;;;19.53;11.47;;;;;;;;;;5034092;28;20182;-75
2022/01/16 13:42:10;;;;;;;20.07;12.33;;;;;;;;;;5050820;28;20184;-75
2022/01/16 13:44:35;;;;;;;17.90;10.70;;;;;;;;;;5035622;28;20262;-75
2022/01/16 13:47:00;;;;;;;14.70;10.03;;;;;;;;;;5034970;28;20215;-75
2022/01/16 13:49:26;;;;;;;21.00;14.90;;;;;;;;;;5051244;28;20194;-75
2022/01/16 13:52:01;;;;;;;12.80;10.63;;;;;;;;;;5040566;28;20194;-75
2022/01/16 13:54:30;;;;;;;23.00;16.00;;;;;;;;;;5050977;28;20247;-75
2022/01/16 13:56:57;;;;;;;19.73;12.30;;;;;;;;;;5053353;28;20224;-75
2022/01/16 13:59:22;;;;;;;20.63;11.60;;;;;;;;;;5051268;28;20200;-75
2022/01/16 14:01:51;;;;;;;16.57;10.27;;;;;;;;;;5033628;28;20276;-75
2022/01/16 14:04:17;;;;;;;12.87;8.50;;;;;;;;;;5046308;28;20202;-75
2022/01/16 14:06:49;;;;;;;18.73;12.10;;;;;;;;;;5035831;28;20180;-75
2022/01/16 14:09:15;;;;;;;19.33;12.10;;;;;;;;;;5034749;28;20198;-75
2022/01/16 14:11:43;;;;;;;21.93;14.67;;;;;;;;;;5035882;28;20234;-75
2022/01/16 14:14:08;;;;;;;21.93;11.23;;;;;;;;;;5057358;28;20221;-74
2022/01/16 14:16:41;;;;;;;13.40;8.37;;;;;;;;;;5031899;28;20168;-75
2022/01/16 14:19:09;;;;;;;17.23;12.13;;;;;;;;;;5038365;28;20188;-74
2022/01/16 14:22:07;;;;;;;17.27;10.10;;;;;;;;;;5032013;28;20182;-75
2022/01/16 14:24:41;;;;;;;17.17;10.57;;;;;;;;;;5047837;28;20193;-75
2022/01/16 14:27:11;;;;;;;32.00;18.33;;;;;;;;;;5051577;28;20203;-75
2022/01/16 14:29:38;;;;;;;15.63;9.87;;;;;;;;;;5030206;28;20445;-75
2022/01/16 14:32:03;;;;;;;15.30;9.50;;;;;;;;;;5024417;28;20193;-75
2022/01/16 14:34:28;;;;;;;15.63;10.33;;;;;;;;;;5027312;28;20206;-75
2022/01/16 14:36:54;;;;;;;14.07;9.03;;;;;;;;;;5029872;28;20190;-74
2022/01/16 14:39:20;;;;;;;16.77;9.23;;;;;;;;;;5050181;28;20178;-75
2022/01/16 14:41:49;;;;;;;14.20;9.53;;;;;;;;;;5032160;28;20182;-75
2022/01/16 14:44:14;;;;;;;12.73;9.40;;;;;;;;;;5034042;28;20178;-75
2022/01/16 14:46:40;;;;;;;14.40;9.60;;;;;;;;;;5043374;28;20184;-75
2022/01/16 14:49:06;;;;;;;22.43;11.60;;;;;;;;;;5029666;28;20241;-74
2022/01/16 14:51:33;;;;;;;13.97;9.77;;;;;;;;;;5031432;28;20209;-74
2022/01/16 14:53:58;;;;;;;14.40;9.40;;;;;;;;;;5031455;28;20178;-75
2022/01/16 14:56:23;;;;;;;17.63;12.07;;;;;;;;;;5046708;28;20929;-75
2022/01/16 14:58:49;;;;;;;15.97;9.63;;;;;;;;;;5028660;28;20175;-75
2022/01/16 15:01:14;;;;;;;18.90;9.73;;;;;;;;;;5047702;28;20264;-75
2022/01/16 15:03:40;;;;;;;17.40;10.20;;;;;;;;;;5031665;28;20173;-75
2022/01/16 15:06:08;;;;;;;17.77;10.87;;;;;;;;;;5030490;28;20245;-75